Time;durP1;ratioP1;P1;durP2;ratioP2;P2;SDS_P1;SDS_P2;PMS_P1;PMS_P2;Temp;Humidity;BMP_temperature;BMP_pressure;BME280_temperature;BME280_humidity;BME280_pressure;Samples;Min_cycle;Max_cycle;Signal;HPM_P1;HPM_P2
2023/08/31 07:55:51;;;;;;;;;;;;;;;6.22;100.00;99383.81;5609502;23;19934;-89
2023/08/31 07:58:16;;;;;;;;;;;;;;;6.33;100.00;99390.47;4992061;28;19929;-83
2023/08/31 08:00:42;;;;;;;;;;;;;;;6.35;100.00;99398.28;5008186;28;19922;-84
2023/08/31 08:03:07;;;;;;;;;;;;;;;6.37;100.00;99404.38;4991579;28;19918;-85
2023/08/31 08:05:32;;;;;;;;;;;;;;;6.36;100.00;99400.00;4991669;28;19965;-84
2023/08/31 08:07:58;;;;;;;;;;;;;;;6.46;100.00;99403.22;4991608;28;20365;-83
2023/08/31 08:10:23;;;;;;;;;;;;;;;6.43;100.00;99403.31;4990052;28;19917;-84
2023/08/31 08:12:48;;;;;;;;;;;;;;;6.43;100.00;99405.94;4993174;28;20009;-83
2023/08/31 08:15:14;;;;;;;;;;;;;;;6.45;100.00;99410.25;4991870;28;19945;-83
2023/08/31 08:17:39;;;;;;;;;;;;;;;6.46;100.00;99405.84;4991719;28;20000;-83
2023/08/31 08:20:07;;;;;;;;;;;;;;;6.44;100.00;99399.78;4992742;28;19960;-83
2023/08/31 08:22:33;;;;;;;;;;;;;;;6.46;100.00;99408.47;4991682;28;19945;-83
2023/08/31 08:24:58;;;;;;;;;;;;;;;6.45;100.00;99398.88;4990433;28;20369;-83
2023/08/31 08:27:23;;;;;;;;;;;;;;;6.47;100.00;99404.94;4992560;28;19917;-83
2023/08/31 08:29:49;;;;;;;;;;;;;;;6.48;100.00;99399.63;5006990;28;19925;-83
2023/08/31 08:32:15;;;;;;;;;;;;;;;6.49;100.00;99396.09;4992577;28;19918;-83
2023/08/31 08:34:40;;;;;;;;;;;;;;;6.46;100.00;99397.94;4992746;28;19918;-83
2023/08/31 08:37:05;;;;;;;;;;;;;;;6.48;100.00;99404.88;4992599;28;19925;-82
2023/08/31 08:39:31;;;;;;;;;;;;;;;6.59;100.00;99401.91;4991424;28;20021;-83
2023/08/31 08:41:58;;;;;;;;;;;;;;;6.60;100.00;99408.03;4991179;28;19964;-82
2023/08/31 08:44:25;;;;;;;;;;;;;;;6.58;100.00;99405.44;4992664;28;19933;-82
2023/08/31 08:46:51;;;;;;;;;;;;;;;6.64;100.00;99409.66;4990532;28;19918;-80
2023/08/31 08:49:16;;;;;;;;;;;;;;;6.57;100.00;99413.41;4992513;28;19918;-81
2023/08/31 08:51:42;;;;;;;;;;;;;;;6.60;100.00;99414.16;4992619;28;19922;-80
2023/08/31 08:54:07;;;;;;;;;;;;;;;6.57;100.00;99408.13;4991608;28;19917;-81
2023/08/31 08:56:34;;;;;;;;;;;;;;;6.61;100.00;99399.25;4993661;28;20474;-81
2023/08/31 08:58:59;;;;;;;;;;;;;;;6.58;100.00;99402.81;4996169;28;19918;-83
2023/08/31 09:01:25;;;;;;;;;;;;;;;6.64;100.00;99400.00;4996174;28;20288;-81
2023/08/31 09:03:51;;;;;;;;;;;;;;;6.67;100.00;99410.41;5011208;28;20008;-81
2023/08/31 09:06:16;;;;;;;;;;;;;;;6.63;100.00;99410.56;4996021;28;20358;-83
2023/08/31 09:08:41;;;;;;;;;;;;;;;6.64;100.00;99415.78;4996151;28;20026;-83
2023/08/31 09:11:07;;;;;;;;;;;;;;;6.61;100.00;99420.31;4993619;28;19925;-81
2023/08/31 09:13:33;;;;;;;;;;;;;;;6.62;100.00;99420.25;4996238;28;19956;-81
2023/08/31 09:15:58;;;;;;;;;;;;;;;6.62;100.00;99424.63;4996495;28;19924;-81
2023/08/31 09:18:26;;;;;;;;;;;;;;;6.67;100.00;99420.06;4995845;28;19922;-81
2023/08/31 09:20:52;;;;;;;;;;;;;;;6.59;100.00;99422.09;4995896;28;19949;-81
2023/08/31 09:23:17;;;;;;;;;;;;;;;6.68;100.00;99406.00;4995753;28;19945;-81
2023/08/31 09:25:44;;;;;;;;;;;;;;;6.63;100.00;99411.41;4993685;28;19922;-83
2023/08/31 09:28:10;;;;;;;;;;;;;;;6.67;100.00;99404.28;4994336;28;20369;-84
2023/08/31 09:30:36;;;;;;;;;;;;;;;6.66;100.00;99413.97;4995727;28;19957;-83
2023/08/31 09:33:03;;;;;;;;;;;;;;;6.62;100.00;99415.00;4995552;28;19957;-83
2023/08/31 09:35:28;;;;;;;;;;;;;;;6.68;100.00;99409.50;4995556;28;19922;-84
2023/08/31 09:37:57;;;;;;;;;;;;;;;6.72;100.00;99408.50;4995492;28;19985;-84
2023/08/31 09:40:22;;;;;;;;;;;;;;;6.66;100.00;99406.06;4994194;28;19926;-84
2023/08/31 09:42:49;;;;;;;;;;;;;;;6.69;100.00;99405.09;4995553;28;19960;-84
2023/08/31 09:45:16;;;;;;;;;;;;;;;6.72;100.00;99403.22;4994593;28;20361;-84
2023/08/31 09:47:42;;;;;;;;;;;;;;;6.71;100.00;99404.13;4995457;28;19918;-84
2023/08/31 09:50:08;;;;;;;;;;;;;;;6.64;100.00;99402.63;4995473;28;20364;-85
2023/08/31 09:52:34;;;;;;;;;;;;;;;6.58;100.00;99405.44;4993786;28;19922;-83
2023/08/31 09:55:01;;;;;;;;;;;;;;;6.75;100.00;99410.19;4992727;28;19918;-84
2023/08/31 09:57:26;;;;;;;;;;;;;;;6.67;100.00;99407.78;4994351;28;20380;-84
2023/08/31 09:59:52;;;;;;;;;;;;;;;6.69;100.00;99400.69;4995117;28;19968;-85
2023/08/31 10:02:18;;;;;;;;;;;;;;;6.69;100.00;99403.31;4995215;28;20457;-85
2023/08/31 10:04:47;;;;;;;;;;;;;;;6.68;100.00;99406.84;4994936;28;20129;-83
2023/08/31 10:07:13;;;;;;;;;;;;;;;6.77;100.00;99399.59;4993566;28;19921;-82
2023/08/31 10:09:39;;;;;;;;;;;;;;;6.70;100.00;99412.97;4995001;28;19979;-84
2023/08/31 10:12:04;;;;;;;;;;;;;;;6.73;100.00;99409.34;4993707;28;20016;-85
2023/08/31 10:14:30;;;;;;;;;;;;;;;6.74;100.00;99411.06;4994718;28;19918;-84
2023/08/31 10:16:56;;;;;;;;;;;;;;;6.72;100.00;99403.22;4994883;28;19940;-84
2023/08/31 10:19:21;;;;;;;;;;;;;;;6.72;100.00;99397.97;4994705;28;19918;-81
2023/08/31 10:21:46;;;;;;;;;;;;;;;6.71;100.00;99404.13;4992405;28;19925;-82
2023/08/31 10:24:11;;;;;;;;;;;;;;;6.67;100.00;99410.41;4994718;28;20577;-83
2023/08/31 10:26:37;;;;;;;;;;;;;;;6.75;100.00;99397.00;4993367;28;20395;-84
2023/08/31 10:29:04;;;;;;;;;;;;;;;6.70;100.00;99394.53;4993245;28;19933;-82
2023/08/31 10:31:30;;;;;;;;;;;;;;;6.76;100.00;99395.22;4994578;28;20524;-82
2023/08/31 10:33:55;;;;;;;;;;;;;;;6.73;100.00;99394.44;4994651;28;19972;-82
2023/08/31 10:36:21;;;;;;;;;;;;;;;6.68;100.00;99404.22;4994251;28;19918;-81
2023/08/31 10:38:59;;;;;;;;;;;;;;;6.83;100.00;99409.91;4994441;28;19964;-81
2023/08/31 10:41:25;;;;;;;;;;;;;;;6.68;100.00;99409.50;4992890;28;19924;-81
2023/08/31 10:44:00;;;;;;;;;;;;;;;6.74;100.00;99411.06;4994333;28;20336;-83
2023/08/31 10:46:29;;;;;;;;;;;;;;;6.75;100.00;99406.66;4994153;28;20024;-81
2023/08/31 10:48:58;;;;;;;;;;;;;;;6.75;100.00;99411.94;4994002;28;19922;-82
2023/08/31 10:51:25;;;;;;;;;;;;;;;6.70;100.00;99405.06;4994133;28;19968;-87
2023/08/31 10:53:50;;;;;;;;;;;;;;;6.73;100.00;99409.34;4993524;28;19972;-85
2023/08/31 10:56:16;;;;;;;;;;;;;;;6.78;100.00;99411.81;4991194;28;19922;-84
2023/08/31 10:58:42;;;;;;;;;;;;;;;6.80;100.00;99415.28;4993975;28;20013;-84
2023/08/31 11:01:07;;;;;;;;;;;;;;;6.72;100.00;99410.28;4992693;28;19914;-83
2023/08/31 11:03:32;;;;;;;;;;;;;;;6.75;100.00;99404.91;4993873;28;19925;-84
2023/08/31 11:05:57;;;;;;;;;;;;;;;6.78;100.00;99398.66;4992709;28;20441;-82
2023/08/31 11:08:23;;;;;;;;;;;;;;;6.83;100.00;99404.63;4993886;28;19929;-87
2023/08/31 11:10:49;;;;;;;;;;;;;;;6.78;100.00;99396.03;4992344;28;19918;-81
2023/08/31 11:13:19;;;;;;;;;;;;;;;6.73;100.00;99394.44;4993987;28;19918;-82
2023/08/31 11:15:47;;;;;;;;;;;;;;;6.75;100.00;99388.22;4993108;28;19929;-87
2023/08/31 11:18:16;;;;;;;;;;;;;;;6.78;100.00;99396.03;4992808;28;20012;-81
2023/08/31 11:20:42;;;;;;;;;;;;;;;6.84;100.00;99390.56;4992880;28;20277;-83
2023/08/31 11:23:07;;;;;;;;;;;;;;;6.76;100.00;99388.19;4994745;28;19924;-83
2023/08/31 11:25:33;;;;;;;;;;;;;;;6.76;100.00;99392.59;4992377;28;19926;-84
2023/08/31 11:27:59;;;;;;;;;;;;;;;6.76;100.00;99395.22;4993549;28;19924;-82
2023/08/31 11:30:31;;;;;;;;;;;;;;;6.75;100.00;99390.88;4993626;28;20312;-84
2023/08/31 11:32:56;;;;;;;;;;;;;;;6.74;100.00;99390.00;4993419;28;19953;-84
2023/08/31 11:35:23;;;;;;;;;;;;;;;6.83;100.00;99391.47;4993596;28;20534;-83
2023/08/31 11:37:55;;;;;;;;;;;;;;;6.73;100.00;99396.19;4993475;28;19918;-84
2023/08/31 11:40:21;;;;;;;;;;;;;;;6.65;100.00;99406.09;4990823;28;20291;-81
2023/08/31 11:42:47;;;;;;;;;;;;;;;6.68;100.00;99406.84;4993375;28;20008;-82
2023/08/31 11:45:13;;;;;;;;;;;;;;;6.79;100.00;99397.75;4993127;28;19918;-84
2023/08/31 11:47:39;;;;;;;;;;;;;;;6.81;100.00;99402.06;4993243;28;20272;-82
2023/08/31 11:50:05;;;;;;;;;;;;;;;6.81;100.00;99401.19;4992008;28;19918;-82
2023/08/31 11:52:31;;;;;;;;;;;;;;;6.78;100.00;99394.28;4992936;28;19925;-82
2023/08/31 11:54:57;;;;;;;;;;;;;;;6.73;100.00;99386.53;4990750;28;19921;-82
2023/08/31 11:57:26;;;;;;;;;;;;;;;6.72;100.00;99387.44;4993015;28;20418;-84
2023/08/31 11:59:52;;;;;;;;;;;;;;;6.83;100.00;99394.09;4992795;28;20292;-83
2023/08/31 12:02:18;;;;;;;;;;;;;;;6.82;100.00;99387.97;4992718;28;19976;-82
2023/08/31 12:04:45;;;;;;;;;;;;;;;6.80;100.00;99374.00;4992773;28;19928;-83
2023/08/31 12:07:10;;;;;;;;;;;;;;;10.93;100.00;99376.06;4992944;28;20022;-81
2023/08/31 12:09:35;;;;;;;;;;;;;;;9.61;100.00;99371.72;4993061;28;19975;-80
2023/08/31 12:12:01;;;;;;;;;;;;;;;7.81;100.00;99373.91;4991464;28;19960;-81
2023/08/31 12:14:27;;;;;;;;;;;;;;;7.45;100.00;99379.63;4992756;28;19975;-80
2023/08/31 12:16:52;;;;;;;;;;;;;;;7.32;100.00;99388.91;4992689;28;19965;-80
2023/08/31 12:19:18;;;;;;;;;;;;;;;7.16;100.00;99381.53;4992988;28;20304;-80
2023/08/31 12:21:44;;;;;;;;;;;;;;;7.17;100.00;99374.50;4992444;28;20312;-80
2023/08/31 12:24:10;;;;;;;;;;;;;;;7.15;100.00;99378.94;4992676;28;19922;-81
2023/08/31 12:26:35;;;;;;;;;;;;;;;7.08;100.00;99371.28;4991362;28;20025;-81
2023/08/31 12:29:00;;;;;;;;;;;;;;;6.93;100.00;99373.59;4993177;28;19928;-81
2023/08/31 12:31:26;;;;;;;;;;;;;;;6.94;100.00;99372.66;4996732;28;20352;-81
2023/08/31 12:33:51;;;;;;;;;;;;;;;6.98;100.00;99361.97;4996300;28;19929;-84
2023/08/31 12:36:16;;;;;;;;;;;;;;;6.92;100.00;99367.44;4996692;28;19925;-82
2023/08/31 12:38:41;;;;;;;;;;;;;;;6.92;100.00;99370.09;4996505;28;20403;-82
2023/08/31 12:41:07;;;;;;;;;;;;;;;7.02;100.00;99368.88;4995350;28;20292;-81
2023/08/31 12:43:33;;;;;;;;;;;;;;;6.99;100.00;99366.34;4996318;28;20354;-81
2023/08/31 12:45:58;;;;;;;;;;;;;;;6.92;100.00;99372.72;4996557;28;19918;-82
2023/08/31 12:48:24;;;;;;;;;;;;;;;6.94;100.00;99363.00;4996362;28;20004;-84
2023/08/31 12:50:49;;;;;;;;;;;;;;;6.85;100.00;99360.69;4996452;28;19945;-84
2023/08/31 12:53:15;;;;;;;;;;;;;;;6.90;100.00;99374.56;4996511;28;19988;-84
2023/08/31 12:55:40;;;;;;;;;;;;;;;6.87;100.00;99358.84;4995041;28;19929;-84
2023/08/31 12:58:05;;;;;;;;;;;;;;;6.83;100.00;99367.75;4994863;28;19929;-82
2023/08/31 13:00:30;;;;;;;;;;;;;;;6.82;100.00;99364.28;4996206;28;19917;-81
2023/08/31 13:02:56;;;;;;;;;;;;;;;6.85;100.00;99368.59;4996163;28;19917;-82
2023/08/31 13:05:21;;;;;;;;;;;;;;;6.84;100.00;99370.34;4994987;28;20385;-81
2023/08/31 13:07:46;;;;;;;;;;;;;;;6.84;100.00;99366.84;4995876;28;20280;-83
2023/08/31 13:10:11;;;;;;;;;;;;;;;6.83;100.00;99360.75;4994792;28;19922;-86
2023/08/31 13:12:37;;;;;;;;;;;;;;;6.87;100.00;99358.84;4995921;28;19914;-83
2023/08/31 13:15:02;;;;;;;;;;;;;;;6.83;100.00;99355.47;4995862;28;19929;-83
2023/08/31 13:17:28;;;;;;;;;;;;;;;6.84;100.00;99356.31;4995809;28;20266;-84
2023/08/31 13:19:54;;;;;;;;;;;;;;;6.88;100.00;99350.06;4996088;28;19914;-83
2023/08/31 13:22:19;;;;;;;;;;;;;;;6.84;100.00;99343.16;4994609;28;19918;-88
2023/08/31 13:24:45;;;;;;;;;;;;;;;6.88;100.00;99355.31;4995311;28;19975;-86
2023/08/31 13:27:10;;;;;;;;;;;;;;;6.86;100.00;99346.59;4994203;28;19925;-86
2023/08/31 13:29:36;;;;;;;;;;;;;;;6.83;100.00;99341.41;4995750;28;20017;-83
2023/08/31 13:32:02;;;;;;;;;;;;;;;6.78;100.00;99338.09;4995067;28;19925;-85
2023/08/31 13:34:27;;;;;;;;;;;;;;;6.80;100.00;99341.56;4995762;28;19922;-86
2023/08/31 13:36:53;;;;;;;;;;;;;;;6.85;100.00;99347.53;4995734;28;19933;-81
2023/08/31 13:39:18;;;;;;;;;;;;;;;6.83;100.00;99347.56;4995401;28;20264;-83
2023/08/31 13:41:45;;;;;;;;;;;;;;;6.82;100.00;99345.00;4993954;28;19965;-84
2023/08/31 13:44:12;;;;;;;;;;;;;;;6.78;100.00;99346.00;4994320;28;20375;-80
2023/08/31 13:46:37;;;;;;;;;;;;;;;6.82;100.00;99350.25;4995263;28;20012;-83
2023/08/31 13:49:02;;;;;;;;;;;;;;;6.78;100.00;99338.09;4994153;28;20380;-83
2023/08/31 13:51:28;;;;;;;;;;;;;;;6.84;100.00;99349.28;4995225;28;19922;-82
2023/08/31 13:53:53;;;;;;;;;;;;;;;6.81;100.00;99353.78;5010611;28;19921;-82
2023/08/31 13:56:18;;;;;;;;;;;;;;;6.80;100.00;99357.34;4993976;28;19922;-80
2023/08/31 13:58:43;;;;;;;;;;;;;;;6.78;100.00;99359.16;4993849;28;19945;-84
2023/08/31 14:01:09;;;;;;;;;;;;;;;6.78;100.00;99356.53;4994370;28;19917;-81
2023/08/31 14:03:34;;;;;;;;;;;;;;;6.78;100.00;99364.44;4995417;28;19929;-83
2023/08/31 14:05:59;;;;;;;;;;;;;;;6.75;100.00;99365.41;4995380;28;20598;-84
2023/08/31 14:08:25;;;;;;;;;;;;;;;6.72;100.00;99366.38;4995125;28;19928;-84
2023/08/31 14:10:52;;;;;;;;;;;;;;;6.80;100.00;99363.47;4993686;28;20285;-81
2023/08/31 14:13:17;;;;;;;;;;;;;;;6.68;100.00;99356.84;4994832;28;19918;-83
2023/08/31 14:15:46;;;;;;;;;;;;;;;6.67;100.00;99357.75;4994801;28;19925;-81
2023/08/31 14:18:12;;;;;;;;;;;;;;;6.70;100.00;99352.41;5009699;28;19925;-82
2023/08/31 14:20:37;;;;;;;;;;;;;;;6.71;100.00;99351.47;4994770;28;19921;-81
2023/08/31 14:23:03;;;;;;;;;;;;;;;6.68;100.00;99348.94;4994812;28;19926;-80
2023/08/31 14:25:29;;;;;;;;;;;;;;;6.69;100.00;99345.41;4993726;28;19926;-81
2023/08/31 14:27:54;;;;;;;;;;;;;;;6.75;100.00;99340.84;4994437;28;19976;-83
2023/08/31 14:30:19;;;;;;;;;;;;;;;6.74;100.00;99339.97;4994675;28;19921;-81
2023/08/31 14:32:44;;;;;;;;;;;;;;;6.74;100.00;99342.63;4993645;28;20016;-80
2023/08/31 14:35:10;;;;;;;;;;;;;;;6.67;100.00;99335.81;4993795;28;19922;-84
2023/08/31 14:37:35;;;;;;;;;;;;;;;6.67;100.00;99341.97;4993574;28;19917;-85
2023/08/31 14:40:01;;;;;;;;;;;;;;;6.71;100.00;99350.63;4993137;28;19929;-80
2023/08/31 14:42:26;;;;;;;;;;;;;;;6.69;100.00;99345.41;4994227;28;19918;-83
2023/08/31 14:44:51;;;;;;;;;;;;;;;6.66;100.00;99344.66;4994200;28;20021;-84
2023/08/31 14:47:17;;;;;;;;;;;;;;;6.77;100.00;99342.50;4993124;28;20296;-81
2023/08/31 14:49:42;;;;;;;;;;;;;;;6.77;100.00;99344.28;4994210;28;20008;-81
2023/08/31 14:52:07;;;;;;;;;;;;;;;6.72;100.00;99350.56;4993603;28;20044;-82
2023/08/31 14:54:33;;;;;;;;;;;;;;;6.77;100.00;99352.19;4994235;28;19944;-81
2023/08/31 14:56:58;;;;;;;;;;;;;;;6.77;100.00;99357.47;4991415;28;19930;-80
2023/08/31 14:59:24;;;;;;;;;;;;;;;6.84;100.00;99353.69;4993888;28;19925;-80
2023/08/31 15:01:49;;;;;;;;;;;;;;;6.85;100.00;99344.88;4993940;28;19982;-81
2023/08/31 15:04:17;;;;;;;;;;;;;;;6.84;100.00;99344.00;4993908;28;19953;-80
2023/08/31 15:06:43;;;;;;;;;;;;;;;6.76;100.00;99342.56;4994014;28;19922;-80
2023/08/31 15:09:08;;;;;;;;;;;;;;;6.80;100.00;99347.69;4993799;28;19925;-81
2023/08/31 15:11:33;;;;;;;;;;;;;;;6.79;100.00;99348.56;4992668;28;19921;-80
2023/08/31 15:13:58;;;;;;;;;;;;;;;6.77;100.00;99328.50;4993690;28;20077;-80
2023/08/31 15:16:24;;;;;;;;;;;;;;;6.78;100.00;99338.09;4992394;28;19918;-82
2023/08/31 15:18:50;;;;;;;;;;;;;;;6.76;100.00;99332.03;4993656;28;20033;-81
2023/08/31 15:21:18;;;;;;;;;;;;;;;6.77;100.00;99339.88;4993647;28;19918;-82
2023/08/31 15:23:44;;;;;;;;;;;;;;;6.77;100.00;99345.16;4993453;28;19968;-81
2023/08/31 15:26:10;;;;;;;;;;;;;;;6.73;100.00;99346.16;5006709;28;19929;-81
2023/08/31 15:28:35;;;;;;;;;;;;;;;6.75;100.00;99348.72;4993372;28;19918;-82
2023/08/31 15:31:00;;;;;;;;;;;;;;;6.82;100.00;99347.63;4992246;28;20001;-81
2023/08/31 15:33:26;;;;;;;;;;;;;;;6.81;100.00;99352.03;4993419;28;19937;-81
2023/08/31 15:35:53;;;;;;;;;;;;;;;6.71;100.00;99348.84;4993456;28;19922;-81
2023/08/31 15:38:22;;;;;;;;;;;;;;;6.83;100.00;99359.84;4993504;28;20319;-83
2023/08/31 15:40:47;;;;;;;;;;;;;;;6.82;100.00;99355.53;4991869;28;19917;-81
2023/08/31 15:43:12;;;;;;;;;;;;;;;6.83;100.00;99357.22;4991955;28;19929;-80
2023/08/31 15:45:38;;;;;;;;;;;;;;;6.88;100.00;99365.84;4993270;28;19921;-81
2023/08/31 15:48:03;;;;;;;;;;;;;;;6.87;100.00;99364.97;4993112;28;19921;-80
2023/08/31 15:50:30;;;;;;;;;;;;;;;6.89;100.00;99372.81;4993276;28;19918;-80
2023/08/31 15:52:56;;;;;;;;;;;;;;;6.93;100.00;99368.34;4993026;28;19921;-80
2023/08/31 15:55:22;;;;;;;;;;;;;;;6.88;100.00;99356.16;4991313;28;19918;-83
2023/08/31 15:57:47;;;;;;;;;;;;;;;6.91;100.00;99360.47;4992809;28;19922;-82
2023/08/31 16:00:12;;;;;;;;;;;;;;;6.84;100.00;99364.22;4991803;28;20827;-82
2023/08/31 16:02:38;;;;;;;;;;;;;;;6.84;100.00;99362.44;4992965;28;19976;-83
2023/08/31 16:05:03;;;;;;;;;;;;;;;6.89;100.00;99367.56;4993120;28;19922;-81
2023/08/31 16:07:29;;;;;;;;;;;;;;;6.88;100.00;99365.84;4992815;28;19925;-86
2023/08/31 16:09:54;;;;;;;;;;;;;;;6.81;100.00;99366.97;4991856;28;20288;-92
2023/08/31 16:12:19;;;;;;;;;;;;;;;6.86;100.00;99367.66;4992847;28;19976;-80
2023/08/31 16:14:48;;;;;;;;;;;;;;;6.78;100.00;99374.97;4992864;28;20757;-81
2023/08/31 16:17:14;;;;;;;;;;;;;;;6.80;100.00;99371.38;5007151;28;20004;-80
2023/08/31 16:19:39;;;;;;;;;;;;;;;6.85;100.00;99369.44;4992933;28;20325;-80
2023/08/31 16:22:05;;;;;;;;;;;;;;;6.81;100.00;99375.75;4992982;28;20030;-81
2023/08/31 16:24:30;;;;;;;;;;;;;;;6.85;100.00;99377.34;4992772;28;19973;-82
2023/08/31 16:26:55;;;;;;;;;;;;;;;6.89;100.00;99372.81;4991367;28;19921;-81
2023/08/31 16:29:21;;;;;;;;;;;;;;;6.88;100.00;99374.59;4992850;28;20344;-83
2023/08/31 16:31:46;;;;;;;;;;;;;;;6.88;100.00;99381.66;4992825;28;20016;-80
2023/08/31 16:34:11;;;;;;;;;;;;;;;6.89;100.00;99375.44;4992798;28;20419;-81
2023/08/31 16:36:36;;;;;;;;;;;;;;;6.87;100.00;99390.47;4992692;28;19929;-81
2023/08/31 16:39:03;;;;;;;;;;;;;;;6.95;100.00;99393.69;4992599;28;19928;-80
2023/08/31 16:41:29;;;;;;;;;;;;;;;6.98;100.00;99398.00;4991444;28;19918;-80
2023/08/31 16:43:55;;;;;;;;;;;;;;;6.98;100.00;99403.28;4992573;28;19925;-81
2023/08/31 16:46:20;;;;;;;;;;;;;;;6.98;100.00;99401.47;4992634;28;20390;-83
2023/08/31 16:48:46;;;;;;;;;;;;;;;6.99;100.00;99413.75;4992588;28;20016;-80
2023/08/31 16:51:11;;;;;;;;;;;;;;;6.93;100.00;99406.06;4991044;28;19925;-80
2023/08/31 16:53:38;;;;;;;;;;;;;;;6.93;100.00;99411.31;4991448;28;19917;-81
2023/08/31 16:56:04;;;;;;;;;;;;;;;6.94;100.00;99413.06;4989942;28;19922;-81
2023/08/31 16:58:30;;;;;;;;;;;;;;;6.92;100.00;99412.22;4992666;28;20389;-81
2023/08/31 17:00:55;;;;;;;;;;;;;;;6.91;100.00;99402.63;4992127;28;19968;-81
2023/08/31 17:03:20;;;;;;;;;;;;;;;6.94;100.00;99404.28;4990939;28;19988;-82
2023/08/31 17:05:50;;;;;;;;;;;;;;;6.87;100.00;99396.56;4990745;28;20005;-81
2023/08/31 17:08:15;;;;;;;;;;;;;;;6.86;100.00;99384.34;4992063;28;19925;-81
2023/08/31 17:10:40;;;;;;;;;;;;;;;6.95;100.00;99388.41;4989602;28;19918;-80
2023/08/31 17:13:06;;;;;;;;;;;;;;;6.96;100.00;99384.03;4992273;28;19921;-81
2023/08/31 17:15:31;;;;;;;;;;;;;;;6.80;100.00;99389.81;4993802;28;19925;-80
2023/08/31 17:17:56;;;;;;;;;;;;;;;6.95;100.00;99388.41;4994839;28;20341;-81
2023/08/31 17:20:22;;;;;;;;;;;;;;;6.97;100.00;99393.63;4996064;28;19922;-81
2023/08/31 17:22:47;;;;;;;;;;;;;;;6.96;100.00;99400.69;4996002;28;19918;-81
2023/08/31 17:25:12;;;;;;;;;;;;;;;6.97;100.00;99407.66;4994528;28;19964;-82
2023/08/31 17:27:38;;;;;;;;;;;;;;;6.93;100.00;99398.16;4994627;28;19965;-81
2023/08/31 17:30:12;;;;;;;;;;;;;;;6.93;100.00;99408.69;4994303;28;20291;-83
2023/08/31 17:32:38;;;;;;;;;;;;;;;6.96;100.00;99405.94;4994377;28;20010;-81
2023/08/31 17:35:04;;;;;;;;;;;;;;;6.93;100.00;99413.09;4995399;28;19925;-82
2023/08/31 17:37:29;;;;;;;;;;;;;;;6.96;100.00;99410.38;4994645;28;20333;-81
2023/08/31 17:39:58;;;;;;;;;;;;;;;6.96;100.00;99405.09;4992926;28;20009;-80
2023/08/31 17:42:23;;;;;;;;;;;;;;;6.95;100.00;99404.22;4995638;28;19961;-82
2023/08/31 17:44:48;;;;;;;;;;;;;;;6.99;100.00;99408.47;4995349;28;19949;-82
2023/08/31 17:47:14;;;;;;;;;;;;;;;6.90;100.00;99407.00;4994968;28;19921;-83
2023/08/31 17:49:41;;;;;;;;;;;;;;;6.93;100.00;99406.06;4995262;28;20012;-80
2023/08/31 17:52:06;;;;;;;;;;;;;;;6.89;100.00;99412.31;4994787;28;19925;-83
2023/08/31 17:54:31;;;;;;;;;;;;;;;6.90;100.00;99419.31;4993499;28;19975;-82
2023/08/31 17:56:57;;;;;;;;;;;;;;;6.92;100.00;99422.75;4993290;28;19929;-84
2023/08/31 17:59:22;;;;;;;;;;;;;;;6.90;100.00;99421.97;4994818;28;19921;-80
2023/08/31 18:01:47;;;;;;;;;;;;;;;6.95;100.00;99424.44;4994747;28;19918;-81
2023/08/31 18:04:12;;;;;;;;;;;;;;;6.87;100.00;99425.53;4995064;28;19921;-81
2023/08/31 18:06:38;;;;;;;;;;;;;;;6.93;100.00;99423.66;4993860;28;19918;-83
2023/08/31 18:09:06;;;;;;;;;;;;;;;6.90;100.00;99424.59;4994741;28;19921;-85
2023/08/31 18:11:32;;;;;;;;;;;;;;;6.81;100.00;99433.69;4991739;28;20343;-81
2023/08/31 18:13:57;;;;;;;;;;;;;;;6.90;100.00;99430.72;4994925;28;20328;-81
2023/08/31 18:16:23;;;;;;;;;;;;;;;6.90;100.00;99448.31;4994859;28;19925;-81
2023/08/31 18:18:48;;;;;;;;;;;;;;;6.87;100.00;99448.41;4994822;28;19972;-82
2023/08/31 18:21:13;;;;;;;;;;;;;;;6.84;100.00;99448.50;4994844;28;20312;-83
2023/08/31 18:23:41;;;;;;;;;;;;;;;6.88;100.00;99442.22;4994128;28;19961;-84
2023/08/31 18:26:06;;;;;;;;;;;;;;;6.89;100.00;99438.66;4992922;28;19941;-82
2023/08/31 18:28:32;;;;;;;;;;;;;;;6.84;100.00;99446.72;4993937;28;19917;-82
2023/08/31 18:30:59;;;;;;;;;;;;;;;6.90;100.00;99441.25;4994594;28;19922;-81
2023/08/31 18:33:25;;;;;;;;;;;;;;;6.84;100.00;99441.44;4993915;28;19961;-84
2023/08/31 18:35:55;;;;;;;;;;;;;;;6.76;100.00;99435.56;4994382;28;20025;-83
2023/08/31 18:38:23;;;;;;;;;;;;;;;6.84;100.00;99441.44;4994303;28;19929;-83
2023/08/31 18:40:52;;;;;;;;;;;;;;;6.89;100.00;99438.66;4992041;28;19913;-81
2023/08/31 18:43:18;;;;;;;;;;;;;;;6.83;100.00;99430.97;4993839;28;19922;-84
2023/08/31 18:45:46;;;;;;;;;;;;;;;6.81;100.00;99427.53;4994338;28;19917;-81
2023/08/31 18:48:12;;;;;;;;;;;;;;;6.77;100.00;99431.19;4993882;28;20074;-83
2023/08/31 18:50:37;;;;;;;;;;;;;;;6.82;100.00;99424.84;4993054;28;20020;-87
2023/08/31 18:53:03;;;;;;;;;;;;;;;6.84;100.00;99424.78;4994033;28;19922;-87
2023/08/31 18:55:30;;;;;;;;;;;;;;;6.80;100.00;99426.69;4992123;28;21555;-83
2023/08/31 18:57:55;;;;;;;;;;;;;;;6.79;100.00;99424.94;4994019;28;19925;-83
2023/08/31 19:00:22;;;;;;;;;;;;;;;6.84;100.00;99428.28;4993990;28;20568;-85
2023/08/31 19:02:48;;;;;;;;;;;;;;;6.77;100.00;99424.16;4994051;28;19968;-85
2023/08/31 19:05:14;;;;;;;;;;;;;;;6.77;100.00;99425.94;4993671;28;19926;-88
2023/08/31 19:07:39;;;;;;;;;;;;;;;6.75;100.00;99420.72;4992538;28;19918;-88
2023/08/31 19:10:05;;;;;;;;;;;;;;;6.82;100.00;99424.00;4992727;28;19918;-85
2023/08/31 19:12:32;;;;;;;;;;;;;;;6.76;100.00;99425.03;4993947;28;19922;-84
2023/08/31 19:14:57;;;;;;;;;;;;;;;6.73;100.00;99420.75;4993403;28;19921;-86
2023/08/31 19:17:23;;;;;;;;;;;;;;;6.73;100.00;99425.16;4993757;28;20025;-85
2023/08/31 19:19:48;;;;;;;;;;;;;;;6.73;100.00;99428.66;4993714;28;19922;-88
2023/08/31 19:22:13;;;;;;;;;;;;;;;6.79;100.00;99435.47;4993765;28;20471;-84
2023/08/31 19:24:38;;;;;;;;;;;;;;;6.84;100.00;99430.06;4993643;28;19918;-88
2023/08/31 19:27:04;;;;;;;;;;;;;;;6.76;100.00;99421.56;4991112;28;19917;-86
2023/08/31 19:29:29;;;;;;;;;;;;;;;6.81;100.00;99428.41;4992255;28;19944;-82
2023/08/31 19:31:54;;;;;;;;;;;;;;;6.80;100.00;99428.47;4993165;28;19925;-80
2023/08/31 19:34:20;;;;;;;;;;;;;;;6.79;100.00;99429.34;4993383;28;20308;-81
2023/08/31 19:36:45;;;;;;;;;;;;;;;6.76;100.00;99432.94;4992958;28;20041;-85
2023/08/31 19:39:10;;;;;;;;;;;;;;;6.79;100.00;99434.63;4991706;28;19922;-85
2023/08/31 19:41:36;;;;;;;;;;;;;;;6.77;100.00;99428.56;4992082;28;20272;-83
2023/08/31 19:44:01;;;;;;;;;;;;;;;6.76;100.00;99421.56;4993247;28;19918;-87
2023/08/31 19:46:26;;;;;;;;;;;;;;;6.79;100.00;99424.94;4992882;28;20357;-83
2023/08/31 19:48:54;;;;;;;;;;;;;;;6.77;100.00;99420.66;4975743;28;19925;-83
2023/08/31 19:51:19;;;;;;;;;;;;;;;6.81;100.00;99411.72;4993119;28;19917;-82
2023/08/31 19:53:45;;;;;;;;;;;;;;;6.81;100.00;99411.72;4993413;28;20271;-83
2023/08/31 19:56:10;;;;;;;;;;;;;;;6.82;100.00;99418.72;4991639;28;20698;-81
2023/08/31 19:58:35;;;;;;;;;;;;;;;6.80;100.00;99420.56;4991895;28;20353;-84
2023/08/31 20:01:01;;;;;;;;;;;;;;;6.81;100.00;99411.72;4993465;28;19924;-85
2023/08/31 20:03:26;;;;;;;;;;;;;;;6.83;100.00;99409.91;4992994;28;19984;-80
2023/08/31 20:05:52;;;;;;;;;;;;;;;6.76;100.00;99411.03;4992935;28;19921;-84
2023/08/31 20:08:17;;;;;;;;;;;;;;;6.74;100.00;99416.34;4992726;28;19918;-82
2023/08/31 20:10:43;;;;;;;;;;;;;;;6.74;100.00;99411.06;4991826;28;20491;-82
2023/08/31 20:13:08;;;;;;;;;;;;;;;6.71;100.00;99412.03;4992928;28;19961;-86
2023/08/31 20:15:33;;;;;;;;;;;;;;;6.80;100.00;99413.50;4992826;28;20361;-86
2023/08/31 20:17:59;;;;;;;;;;;;;;;6.78;100.00;99406.56;4992978;28;19965;-85
2023/08/31 20:20:24;;;;;;;;;;;;;;;6.70;100.00;99407.69;4992655;28;19924;-81
2023/08/31 20:22:50;;;;;;;;;;;;;;;6.69;100.00;99405.97;4992711;28;19918;-82
2023/08/31 20:25:15;;;;;;;;;;;;;;;6.71;100.00;99405.91;4991541;28;19961;-82
2023/08/31 20:27:40;;;;;;;;;;;;;;;6.77;100.00;99396.97;4991195;28;19971;-81
2023/08/31 20:30:06;;;;;;;;;;;;;;;6.79;100.00;99409.16;4992854;28;19928;-82
2023/08/31 20:32:32;;;;;;;;;;;;;;;6.78;100.00;99401.28;4991871;28;19957;-84
2023/08/31 20:34:57;;;;;;;;;;;;;;;6.76;100.00;99413.66;4992615;28;19988;-80